sensor_id;sensor_type;location;lat;lon;timestamp;P1;durP1;ratioP1;P2;durP2;ratioP2
54033;SDS011;39952;40.122;18.294;2022-09-19T00:00:41;5.40;;;2.90;;
54033;SDS011;39952;40.122;18.294;2022-09-19T00:03:51;6.57;;;3.10;;
54033;SDS011;39952;40.122;18.294;2022-09-19T00:06:59;6.63;;;2.90;;
54033;SDS011;39952;40.122;18.294;2022-09-19T00:10:07;7.45;;;3.60;;
54033;SDS011;39952;40.122;18.294;2022-09-19T00:13:16;7.63;;;3.05;;
54033;SDS011;39952;40.122;18.294;2022-09-19T00:16:24;7.43;;;3.20;;
54033;SDS011;39952;40.122;18.294;2022-09-19T00:22:39;8.45;;;3.50;;
54033;SDS011;39952;40.122;18.294;2022-09-19T00:26:06;6.70;;;3.90;;
54033;SDS011;39952;40.122;18.294;2022-09-19T00:29:15;8.02;;;3.30;;
54033;SDS011;39952;40.122;18.294;2022-09-19T00:32:23;6.13;;;3.03;;
54033;SDS011;39952;40.122;18.294;2022-09-19T00:35:30;6.93;;;3.05;;
54033;SDS011;39952;40.122;18.294;2022-09-19T00:38:37;7.88;;;3.70;;
54033;SDS011;39952;40.122;18.294;2022-09-19T00:41:44;8.70;;;3.45;;
54033;SDS011;39952;40.122;18.294;2022-09-19T00:45:02;6.53;;;3.60;;
54033;SDS011;39952;40.122;18.294;2022-09-19T00:48:12;7.63;;;3.30;;
54033;SDS011;39952;40.122;18.294;2022-09-19T00:51:23;6.88;;;3.72;;
54033;SDS011;39952;40.122;18.294;2022-09-19T00:54:36;7.57;;;3.25;;
54033;SDS011;39952;40.122;18.294;2022-09-19T00:57:54;7.85;;;4.32;;
54033;SDS011;39952;40.122;18.294;2022-09-19T01:01:06;9.35;;;3.50;;
54033;SDS011;39952;40.122;18.294;2022-09-19T01:04:13;6.57;;;3.55;;
54033;SDS011;39952;40.122;18.294;2022-09-19T01:07:25;8.82;;;4.00;;
54033;SDS011;39952;40.122;18.294;2022-09-19T01:10:42;7.00;;;3.97;;
54033;SDS011;39952;40.122;18.294;2022-09-19T01:14:01;6.90;;;3.33;;
54033;SDS011;39952;40.122;18.294;2022-09-19T01:17:14;8.75;;;3.90;;
54033;SDS011;39952;40.122;18.294;2022-09-19T01:20:35;6.35;;;3.30;;
54033;SDS011;39952;40.122;18.294;2022-09-19T01:27:56;6.38;;;3.55;;
54033;SDS011;39952;40.122;18.294;2022-09-19T01:31:24;7.20;;;3.65;;
54033;SDS011;39952;40.122;18.294;2022-09-19T01:34:34;8.85;;;3.85;;
54033;SDS011;39952;40.122;18.294;2022-09-19T01:37:47;6.85;;;3.95;;
54033;SDS011;39952;40.122;18.294;2022-09-19T01:41:00;6.25;;;3.47;;
54033;SDS011;39952;40.122;18.294;2022-09-19T01:44:16;6.95;;;3.00;;
54033;SDS011;39952;40.122;18.294;2022-09-19T01:47:30;5.97;;;3.20;;
54033;SDS011;39952;40.122;18.294;2022-09-19T01:50:46;7.93;;;3.50;;
54033;SDS011;39952;40.122;18.294;2022-09-19T01:54:18;6.68;;;3.50;;
54033;SDS011;39952;40.122;18.294;2022-09-19T01:57:47;8.45;;;3.88;;
54033;SDS011;39952;40.122;18.294;2022-09-19T02:01:04;8.43;;;3.63;;
54033;SDS011;39952;40.122;18.294;2022-09-19T02:04:15;9.13;;;3.30;;
54033;SDS011;39952;40.122;18.294;2022-09-19T02:07:26;8.52;;;3.60;;
54033;SDS011;39952;40.122;18.294;2022-09-19T02:10:47;9.30;;;4.15;;
54033;SDS011;39952;40.122;18.294;2022-09-19T02:14:03;6.82;;;3.35;;
54033;SDS011;39952;40.122;18.294;2022-09-19T02:17:19;9.32;;;3.72;;
54033;SDS011;39952;40.122;18.294;2022-09-19T02:20:32;10.00;;;3.25;;
54033;SDS011;39952;40.122;18.294;2022-09-19T02:23:43;7.15;;;3.80;;
54033;SDS011;39952;40.122;18.294;2022-09-19T02:26:57;7.78;;;3.88;;
54033;SDS011;39952;40.122;18.294;2022-09-19T02:30:08;8.13;;;4.00;;
54033;SDS011;39952;40.122;18.294;2022-09-19T02:33:22;10.70;;;3.90;;
54033;SDS011;39952;40.122;18.294;2022-09-19T02:36:30;8.75;;;3.63;;
54033;SDS011;39952;40.122;18.294;2022-09-19T02:39:45;9.00;;;4.28;;
54033;SDS011;39952;40.122;18.294;2022-09-19T02:43:09;6.57;;;3.20;;
54033;SDS011;39952;40.122;18.294;2022-09-19T02:46:24;6.38;;;3.40;;
54033;SDS011;39952;40.122;18.294;2022-09-19T02:49:41;8.23;;;3.20;;
54033;SDS011;39952;40.122;18.294;2022-09-19T02:52:53;6.07;;;3.28;;
54033;SDS011;39952;40.122;18.294;2022-09-19T02:59:14;6.73;;;3.03;;
54033;SDS011;39952;40.122;18.294;2022-09-19T03:02:32;9.05;;;3.28;;
54033;SDS011;39952;40.122;18.294;2022-09-19T03:05:44;6.32;;;3.30;;
54033;SDS011;39952;40.122;18.294;2022-09-19T03:08:51;6.50;;;3.13;;
54033;SDS011;39952;40.122;18.294;2022-09-19T03:12:02;9.02;;;3.72;;
54033;SDS011;39952;40.122;18.294;2022-09-19T03:15:13;8.90;;;3.50;;
54033;SDS011;39952;40.122;18.294;2022-09-19T03:18:21;8.43;;;3.05;;
54033;SDS011;39952;40.122;18.294;2022-09-19T03:21:31;5.78;;;3.10;;
54033;SDS011;39952;40.122;18.294;2022-09-19T03:24:41;11.00;;;3.38;;
54033;SDS011;39952;40.122;18.294;2022-09-19T03:27:48;9.07;;;4.00;;
54033;SDS011;39952;40.122;18.294;2022-09-19T03:30:58;5.88;;;3.13;;
54033;SDS011;39952;40.122;18.294;2022-09-19T03:34:06;7.53;;;3.38;;
54033;SDS011;39952;40.122;18.294;2022-09-19T03:37:15;6.38;;;3.45;;
54033;SDS011;39952;40.122;18.294;2022-09-19T03:40:23;7.18;;;3.60;;
54033;SDS011;39952;40.122;18.294;2022-09-19T03:43:31;5.47;;;3.07;;
54033;SDS011;39952;40.122;18.294;2022-09-19T03:46:41;5.95;;;3.15;;
54033;SDS011;39952;40.122;18.294;2022-09-19T03:49:51;7.20;;;3.10;;
54033;SDS011;39952;40.122;18.294;2022-09-19T03:53:00;5.30;;;3.00;;
54033;SDS011;39952;40.122;18.294;2022-09-19T03:56:11;5.30;;;3.08;;
54033;SDS011;39952;40.122;18.294;2022-09-19T03:59:19;6.55;;;3.38;;
54033;SDS011;39952;40.122;18.294;2022-09-19T04:02:26;6.55;;;3.05;;
54033;SDS011;39952;40.122;18.294;2022-09-19T04:05:32;5.75;;;2.95;;
54033;SDS011;39952;40.122;18.294;2022-09-19T04:08:41;7.97;;;3.40;;
54033;SDS011;39952;40.122;18.294;2022-09-19T04:11:48;6.30;;;3.40;;
54033;SDS011;39952;40.122;18.294;2022-09-19T04:14:57;6.07;;;3.25;;
54033;SDS011;39952;40.122;18.294;2022-09-19T04:18:05;7.30;;;4.03;;
54033;SDS011;39952;40.122;18.294;2022-09-19T04:21:14;7.30;;;3.58;;
54033;SDS011;39952;40.122;18.294;2022-09-19T04:24:25;8.63;;;3.50;;
54033;SDS011;39952;40.122;18.294;2022-09-19T04:27:54;6.25;;;3.00;;
54033;SDS011;39952;40.122;18.294;2022-09-19T04:31:03;8.60;;;3.35;;
54033;SDS011;39952;40.122;18.294;2022-09-19T04:34:10;8.82;;;3.67;;
54033;SDS011;39952;40.122;18.294;2022-09-19T04:37:22;6.28;;;3.08;;
54033;SDS011;39952;40.122;18.294;2022-09-19T04:40:41;5.43;;;2.78;;
54033;SDS011;39952;40.122;18.294;2022-09-19T04:43:50;8.27;;;3.53;;
54033;SDS011;39952;40.122;18.294;2022-09-19T04:47:17;6.30;;;3.08;;
54033;SDS011;39952;40.122;18.294;2022-09-19T04:50:24;6.68;;;3.05;;
54033;SDS011;39952;40.122;18.294;2022-09-19T04:53:36;6.45;;;2.85;;
54033;SDS011;39952;40.122;18.294;2022-09-19T04:56:47;5.65;;;3.08;;
54033;SDS011;39952;40.122;18.294;2022-09-19T04:59:54;8.40;;;3.30;;
54033;SDS011;39952;40.122;18.294;2022-09-19T05:03:00;8.85;;;3.50;;
54033;SDS011;39952;40.122;18.294;2022-09-19T05:06:11;6.43;;;3.30;;
54033;SDS011;39952;40.122;18.294;2022-09-19T05:09:19;23.55;;;11.23;;
54033;SDS011;39952;40.122;18.294;2022-09-19T05:12:39;31.30;;;14.40;;
54033;SDS011;39952;40.122;18.294;2022-09-19T05:15:46;23.25;;;10.73;;
54033;SDS011;39952;40.122;18.294;2022-09-19T05:18:54;16.58;;;9.05;;
54033;SDS011;39952;40.122;18.294;2022-09-19T05:22:01;16.20;;;8.45;;
54033;SDS011;39952;40.122;18.294;2022-09-19T05:25:08;14.90;;;6.90;;
54033;SDS011;39952;40.122;18.294;2022-09-19T05:28:20;10.40;;;4.57;;
54033;SDS011;39952;40.122;18.294;2022-09-19T05:31:32;7.70;;;4.30;;
54033;SDS011;39952;40.122;18.294;2022-09-19T05:34:57;9.10;;;4.95;;
54033;SDS011;39952;40.122;18.294;2022-09-19T05:38:25;10.57;;;4.18;;
54033;SDS011;39952;40.122;18.294;2022-09-19T05:41:51;7.13;;;3.53;;
54033;SDS011;39952;40.122;18.294;2022-09-19T05:45:01;8.15;;;3.92;;
54033;SDS011;39952;40.122;18.294;2022-09-19T05:48:08;9.48;;;3.88;;
54033;SDS011;39952;40.122;18.294;2022-09-19T05:51:15;6.68;;;3.75;;
54033;SDS011;39952;40.122;18.294;2022-09-19T05:54:22;6.75;;;3.67;;
54033;SDS011;39952;40.122;18.294;2022-09-19T05:57:51;8.77;;;3.55;;
54033;SDS011;39952;40.122;18.294;2022-09-19T06:01:06;14.40;;;6.50;;
54033;SDS011;39952;40.122;18.294;2022-09-19T06:04:15;9.63;;;4.25;;
54033;SDS011;39952;40.122;18.294;2022-09-19T06:07:23;6.30;;;3.65;;
54033;SDS011;39952;40.122;18.294;2022-09-19T06:10:32;7.75;;;4.10;;
54033;SDS011;39952;40.122;18.294;2022-09-19T06:13:40;7.38;;;3.80;;
54033;SDS011;39952;40.122;18.294;2022-09-19T06:17:06;8.25;;;3.50;;
54033;SDS011;39952;40.122;18.294;2022-09-19T06:20:26;6.43;;;3.63;;
54033;SDS011;39952;40.122;18.294;2022-09-19T06:23:44;7.07;;;3.83;;
54033;SDS011;39952;40.122;18.294;2022-09-19T06:26:52;7.65;;;3.88;;
54033;SDS011;39952;40.122;18.294;2022-09-19T06:30:02;7.60;;;4.25;;
54033;SDS011;39952;40.122;18.294;2022-09-19T06:33:30;6.43;;;3.22;;
54033;SDS011;39952;40.122;18.294;2022-09-19T06:36:39;9.00;;;3.30;;
54033;SDS011;39952;40.122;18.294;2022-09-19T06:39:48;6.18;;;3.30;;
54033;SDS011;39952;40.122;18.294;2022-09-19T06:43:30;7.05;;;3.33;;
54033;SDS011;39952;40.122;18.294;2022-09-19T06:46:39;7.50;;;3.55;;
54033;SDS011;39952;40.122;18.294;2022-09-19T06:50:08;12.10;;;3.28;;
54033;SDS011;39952;40.122;18.294;2022-09-19T06:53:34;8.18;;;3.33;;
54033;SDS011;39952;40.122;18.294;2022-09-19T06:56:44;6.50;;;3.10;;
54033;SDS011;39952;40.122;18.294;2022-09-19T06:59:52;5.95;;;3.00;;
54033;SDS011;39952;40.122;18.294;2022-09-19T07:03:00;10.10;;;3.97;;
54033;SDS011;39952;40.122;18.294;2022-09-19T07:06:12;6.97;;;3.65;;
54033;SDS011;39952;40.122;18.294;2022-09-19T07:09:21;7.90;;;4.10;;
54033;SDS011;39952;40.122;18.294;2022-09-19T07:12:28;8.00;;;3.80;;
54033;SDS011;39952;40.122;18.294;2022-09-19T07:15:40;6.60;;;3.15;;
54033;SDS011;39952;40.122;18.294;2022-09-19T07:18:47;11.55;;;3.80;;
54033;SDS011;39952;40.122;18.294;2022-09-19T07:22:14;5.40;;;2.97;;
54033;SDS011;39952;40.122;18.294;2022-09-19T07:25:40;7.45;;;3.70;;
54033;SDS011;39952;40.122;18.294;2022-09-19T07:28:48;55.10;;;8.75;;
54033;SDS011;39952;40.122;18.294;2022-09-19T07:31:57;7.32;;;3.55;;
54033;SDS011;39952;40.122;18.294;2022-09-19T07:35:04;6.28;;;3.00;;
54033;SDS011;39952;40.122;18.294;2022-09-19T07:38:16;5.68;;;3.30;;
54033;SDS011;39952;40.122;18.294;2022-09-19T07:41:42;5.38;;;3.05;;
54033;SDS011;39952;40.122;18.294;2022-09-19T07:45:08;5.88;;;3.20;;
54033;SDS011;39952;40.122;18.294;2022-09-19T07:48:37;5.70;;;3.42;;
54033;SDS011;39952;40.122;18.294;2022-09-19T07:52:01;6.20;;;3.50;;
54033;SDS011;39952;40.122;18.294;2022-09-19T07:55:10;6.05;;;3.40;;
54033;SDS011;39952;40.122;18.294;2022-09-19T07:58:17;11.53;;;3.87;;
54033;SDS011;39952;40.122;18.294;2022-09-19T08:01:29;6.93;;;3.20;;
54033;SDS011;39952;40.122;18.294;2022-09-19T08:04:47;8.80;;;3.40;;
54033;SDS011;39952;40.122;18.294;2022-09-19T08:07:55;7.13;;;3.00;;
54033;SDS011;39952;40.122;18.294;2022-09-19T08:11:08;6.55;;;3.70;;
54033;SDS011;39952;40.122;18.294;2022-09-19T08:14:15;6.70;;;3.70;;
54033;SDS011;39952;40.122;18.294;2022-09-19T08:17:23;10.23;;;4.45;;
54033;SDS011;39952;40.122;18.294;2022-09-19T08:20:33;5.82;;;3.00;;
54033;SDS011;39952;40.122;18.294;2022-09-19T08:23:41;8.63;;;3.47;;
54033;SDS011;39952;40.122;18.294;2022-09-19T08:26:49;8.77;;;3.78;;
54033;SDS011;39952;40.122;18.294;2022-09-19T08:29:57;9.73;;;3.80;;
54033;SDS011;39952;40.122;18.294;2022-09-19T08:33:05;8.13;;;4.28;;
54033;SDS011;39952;40.122;18.294;2022-09-19T08:36:14;6.88;;;3.92;;
54033;SDS011;39952;40.122;18.294;2022-09-19T08:39:25;8.40;;;4.30;;
54033;SDS011;39952;40.122;18.294;2022-09-19T08:42:35;9.52;;;4.30;;
54033;SDS011;39952;40.122;18.294;2022-09-19T08:45:55;8.48;;;3.60;;
54033;SDS011;39952;40.122;18.294;2022-09-19T08:49:11;7.32;;;3.95;;
54033;SDS011;39952;40.122;18.294;2022-09-19T08:52:27;7.90;;;3.92;;
54033;SDS011;39952;40.122;18.294;2022-09-19T08:58:58;6.68;;;3.70;;
54033;SDS011;39952;40.122;18.294;2022-09-19T09:02:31;6.88;;;3.53;;
54033;SDS011;39952;40.122;18.294;2022-09-19T09:05:58;7.57;;;3.80;;
54033;SDS011;39952;40.122;18.294;2022-09-19T09:09:20;6.43;;;3.38;;
54033;SDS011;39952;40.122;18.294;2022-09-19T09:12:38;5.80;;;3.67;;
54033;SDS011;39952;40.122;18.294;2022-09-19T09:15:57;6.90;;;4.18;;
54033;SDS011;39952;40.122;18.294;2022-09-19T09:19:15;5.85;;;3.95;;
54033;SDS011;39952;40.122;18.294;2022-09-19T09:22:43;6.63;;;4.50;;
54033;SDS011;39952;40.122;18.294;2022-09-19T09:26:13;6.43;;;4.38;;
54033;SDS011;39952;40.122;18.294;2022-09-19T09:29:23;7.55;;;4.55;;
54033;SDS011;39952;40.122;18.294;2022-09-19T09:32:49;7.25;;;4.32;;
54033;SDS011;39952;40.122;18.294;2022-09-19T09:36:05;14.27;;;5.18;;
54033;SDS011;39952;40.122;18.294;2022-09-19T09:39:17;6.82;;;4.20;;
54033;SDS011;39952;40.122;18.294;2022-09-19T09:42:31;9.18;;;5.07;;
54033;SDS011;39952;40.122;18.294;2022-09-19T09:45:46;7.07;;;4.00;;
54033;SDS011;39952;40.122;18.294;2022-09-19T09:49:09;6.10;;;4.25;;
54033;SDS011;39952;40.122;18.294;2022-09-19T09:52:21;7.75;;;4.50;;
54033;SDS011;39952;40.122;18.294;2022-09-19T09:55:42;11.73;;;5.28;;
54033;SDS011;39952;40.122;18.294;2022-09-19T09:59:20;7.60;;;4.00;;
54033;SDS011;39952;40.122;18.294;2022-09-19T10:02:58;7.15;;;4.00;;
54033;SDS011;39952;40.122;18.294;2022-09-19T10:06:34;6.57;;;4.30;;
54033;SDS011;39952;40.122;18.294;2022-09-19T10:09:47;8.25;;;4.05;;
54033;SDS011;39952;40.122;18.294;2022-09-19T10:12:59;5.80;;;3.78;;
54033;SDS011;39952;40.122;18.294;2022-09-19T10:16:13;6.03;;;3.90;;
54033;SDS011;39952;40.122;18.294;2022-09-19T10:19:29;7.22;;;4.40;;
54033;SDS011;39952;40.122;18.294;2022-09-19T10:22:42;6.10;;;3.92;;
54033;SDS011;39952;40.122;18.294;2022-09-19T10:25:51;6.60;;;3.60;;
54033;SDS011;39952;40.122;18.294;2022-09-19T10:29:05;7.88;;;4.25;;
54033;SDS011;39952;40.122;18.294;2022-09-19T10:32:51;6.28;;;3.70;;
54033;SDS011;39952;40.122;18.294;2022-09-19T10:36:20;11.00;;;7.22;;
54033;SDS011;39952;40.122;18.294;2022-09-19T10:39:32;6.10;;;3.65;;
54033;SDS011;39952;40.122;18.294;2022-09-19T10:42:52;7.22;;;4.13;;
54033;SDS011;39952;40.122;18.294;2022-09-19T10:46:04;6.10;;;3.63;;
54033;SDS011;39952;40.122;18.294;2022-09-19T10:49:18;6.30;;;3.80;;
54033;SDS011;39952;40.122;18.294;2022-09-19T10:52:29;7.22;;;3.90;;
54033;SDS011;39952;40.122;18.294;2022-09-19T10:55:55;5.30;;;3.30;;
54033;SDS011;39952;40.122;18.294;2022-09-19T10:59:17;5.93;;;3.70;;
54033;SDS011;39952;40.122;18.294;2022-09-19T11:02:55;7.55;;;3.70;;
54033;SDS011;39952;40.122;18.294;2022-09-19T11:06:05;7.05;;;3.60;;
54033;SDS011;39952;40.122;18.294;2022-09-19T11:09:23;6.40;;;3.70;;
54033;SDS011;39952;40.122;18.294;2022-09-19T11:12:41;8.57;;;4.20;;
54033;SDS011;39952;40.122;18.294;2022-09-19T11:15:54;8.23;;;4.22;;
54033;SDS011;39952;40.122;18.294;2022-09-19T11:19:16;10.38;;;5.80;;
54033;SDS011;39952;40.122;18.294;2022-09-19T11:22:35;6.30;;;4.20;;
54033;SDS011;39952;40.122;18.294;2022-09-19T11:25:52;6.43;;;3.70;;
54033;SDS011;39952;40.122;18.294;2022-09-19T11:29:14;7.30;;;3.53;;
54033;SDS011;39952;40.122;18.294;2022-09-19T11:32:54;10.32;;;3.42;;
54033;SDS011;39952;40.122;18.294;2022-09-19T11:36:35;5.63;;;3.60;;
54033;SDS011;39952;40.122;18.294;2022-09-19T11:39:52;6.63;;;3.40;;
54033;SDS011;39952;40.122;18.294;2022-09-19T11:43:15;7.70;;;3.90;;
54033;SDS011;39952;40.122;18.294;2022-09-19T11:46:41;7.20;;;3.90;;
54033;SDS011;39952;40.122;18.294;2022-09-19T11:53:21;6.18;;;3.72;;
54033;SDS011;39952;40.122;18.294;2022-09-19T11:56:55;6.65;;;3.90;;
54033;SDS011;39952;40.122;18.294;2022-09-19T12:00:12;8.82;;;3.75;;
54033;SDS011;39952;40.122;18.294;2022-09-19T12:03:34;6.10;;;3.50;;
54033;SDS011;39952;40.122;18.294;2022-09-19T12:07:06;6.35;;;3.85;;
54033;SDS011;39952;40.122;18.294;2022-09-19T12:10:34;5.88;;;3.63;;
54033;SDS011;39952;40.122;18.294;2022-09-19T12:13:44;6.57;;;3.65;;
54033;SDS011;39952;40.122;18.294;2022-09-19T12:17:01;7.55;;;3.47;;
54033;SDS011;39952;40.122;18.294;2022-09-19T12:20:15;7.03;;;3.70;;
54033;SDS011;39952;40.122;18.294;2022-09-19T12:23:26;6.82;;;4.38;;
54033;SDS011;39952;40.122;18.294;2022-09-19T12:27:03;10.07;;;4.10;;
54033;SDS011;39952;40.122;18.294;2022-09-19T12:30:19;7.72;;;3.97;;
54033;SDS011;39952;40.122;18.294;2022-09-19T12:33:35;7.93;;;3.90;;
54033;SDS011;39952;40.122;18.294;2022-09-19T12:36:54;7.13;;;4.35;;
54033;SDS011;39952;40.122;18.294;2022-09-19T12:40:11;7.68;;;4.25;;
54033;SDS011;39952;40.122;18.294;2022-09-19T12:43:26;6.13;;;4.00;;
54033;SDS011;39952;40.122;18.294;2022-09-19T12:46:43;6.75;;;3.95;;
54033;SDS011;39952;40.122;18.294;2022-09-19T12:50:14;8.43;;;4.85;;
54033;SDS011;39952;40.122;18.294;2022-09-19T12:53:29;11.52;;;5.20;;
54033;SDS011;39952;40.122;18.294;2022-09-19T12:56:42;6.78;;;4.45;;
54033;SDS011;39952;40.122;18.294;2022-09-19T12:59:56;6.63;;;4.05;;
54033;SDS011;39952;40.122;18.294;2022-09-19T13:03:08;9.45;;;4.05;;
54033;SDS011;39952;40.122;18.294;2022-09-19T13:06:21;7.43;;;4.13;;
54033;SDS011;39952;40.122;18.294;2022-09-19T13:09:35;8.75;;;4.00;;
54033;SDS011;39952;40.122;18.294;2022-09-19T13:12:48;7.32;;;4.22;;
54033;SDS011;39952;40.122;18.294;2022-09-19T13:15:59;6.72;;;4.30;;
54033;SDS011;39952;40.122;18.294;2022-09-19T13:19:11;8.60;;;4.30;;
54033;SDS011;39952;40.122;18.294;2022-09-19T13:22:41;7.30;;;4.25;;
54033;SDS011;39952;40.122;18.294;2022-09-19T13:26:18;10.73;;;4.35;;
54033;SDS011;39952;40.122;18.294;2022-09-19T13:29:44;6.80;;;4.55;;
54033;SDS011;39952;40.122;18.294;2022-09-19T13:32:54;6.43;;;4.13;;
54033;SDS011;39952;40.122;18.294;2022-09-19T13:36:05;7.13;;;4.50;;
54033;SDS011;39952;40.122;18.294;2022-09-19T13:42:57;6.35;;;4.25;;
54033;SDS011;39952;40.122;18.294;2022-09-19T13:46:10;6.95;;;4.13;;
54033;SDS011;39952;40.122;18.294;2022-09-19T13:49:24;7.60;;;4.07;;
54033;SDS011;39952;40.122;18.294;2022-09-19T13:52:37;8.10;;;4.25;;
54033;SDS011;39952;40.122;18.294;2022-09-19T13:55:52;5.88;;;3.97;;
54033;SDS011;39952;40.122;18.294;2022-09-19T13:59:13;7.57;;;4.60;;
54033;SDS011;39952;40.122;18.294;2022-09-19T14:02:28;7.07;;;4.55;;
54033;SDS011;39952;40.122;18.294;2022-09-19T14:05:44;9.05;;;4.28;;
54033;SDS011;39952;40.122;18.294;2022-09-19T14:12:59;7.55;;;4.40;;
54033;SDS011;39952;40.122;18.294;2022-09-19T14:19:42;6.88;;;4.07;;
54033;SDS011;39952;40.122;18.294;2022-09-19T14:22:50;7.05;;;4.47;;
54033;SDS011;39952;40.122;18.294;2022-09-19T14:25:58;7.30;;;4.10;;
54033;SDS011;39952;40.122;18.294;2022-09-19T14:29:09;8.18;;;3.60;;
54033;SDS011;39952;40.122;18.294;2022-09-19T14:35:43;6.45;;;3.90;;
54033;SDS011;39952;40.122;18.294;2022-09-19T14:39:03;7.85;;;3.85;;
54033;SDS011;39952;40.122;18.294;2022-09-19T14:42:55;8.23;;;3.72;;
54033;SDS011;39952;40.122;18.294;2022-09-19T14:46:24;9.55;;;4.20;;
54033;SDS011;39952;40.122;18.294;2022-09-19T14:49:37;8.93;;;3.70;;
54033;SDS011;39952;40.122;18.294;2022-09-19T14:52:53;7.22;;;3.72;;
54033;SDS011;39952;40.122;18.294;2022-09-19T14:56:07;7.25;;;4.18;;
54033;SDS011;39952;40.122;18.294;2022-09-19T14:59:17;7.25;;;4.28;;
54033;SDS011;39952;40.122;18.294;2022-09-19T15:02:28;8.52;;;4.00;;
54033;SDS011;39952;40.122;18.294;2022-09-19T15:05:43;7.65;;;4.28;;
54033;SDS011;39952;40.122;18.294;2022-09-19T15:08:51;7.43;;;4.40;;
54033;SDS011;39952;40.122;18.294;2022-09-19T15:11:58;6.68;;;3.97;;
54033;SDS011;39952;40.122;18.294;2022-09-19T15:15:12;8.07;;;4.07;;
54033;SDS011;39952;40.122;18.294;2022-09-19T15:18:22;6.97;;;4.28;;
54033;SDS011;39952;40.122;18.294;2022-09-19T15:21:33;6.60;;;4.20;;
54033;SDS011;39952;40.122;18.294;2022-09-19T15:24:42;8.57;;;3.97;;
54033;SDS011;39952;40.122;18.294;2022-09-19T15:27:56;6.30;;;4.00;;
54033;SDS011;39952;40.122;18.294;2022-09-19T15:31:16;10.70;;;4.82;;
54033;SDS011;39952;40.122;18.294;2022-09-19T15:34:26;7.00;;;4.20;;
54033;SDS011;39952;40.122;18.294;2022-09-19T15:37:34;10.38;;;4.28;;
54033;SDS011;39952;40.122;18.294;2022-09-19T15:40:43;6.93;;;3.80;;
54033;SDS011;39952;40.122;18.294;2022-09-19T15:43:51;11.23;;;5.80;;
54033;SDS011;39952;40.122;18.294;2022-09-19T15:47:02;20.85;;;8.15;;
54033;SDS011;39952;40.122;18.294;2022-09-19T15:50:19;14.73;;;7.25;;
54033;SDS011;39952;40.122;18.294;2022-09-19T15:53:31;9.80;;;5.53;;
54033;SDS011;39952;40.122;18.294;2022-09-19T15:56:41;8.95;;;5.53;;
54033;SDS011;39952;40.122;18.294;2022-09-19T15:59:51;9.18;;;5.57;;
54033;SDS011;39952;40.122;18.294;2022-09-19T16:03:04;11.07;;;6.00;;
54033;SDS011;39952;40.122;18.294;2022-09-19T16:06:21;15.00;;;8.52;;
54033;SDS011;39952;40.122;18.294;2022-09-19T16:10:10;7.63;;;4.80;;
54033;SDS011;39952;40.122;18.294;2022-09-19T16:13:32;7.10;;;4.20;;
54033;SDS011;39952;40.122;18.294;2022-09-19T16:16:44;7.20;;;4.35;;
54033;SDS011;39952;40.122;18.294;2022-09-19T16:19:59;7.20;;;4.40;;
54033;SDS011;39952;40.122;18.294;2022-09-19T16:23:11;8.07;;;4.13;;
54033;SDS011;39952;40.122;18.294;2022-09-19T16:26:22;7.25;;;4.20;;
54033;SDS011;39952;40.122;18.294;2022-09-19T16:29:39;6.70;;;4.38;;
54033;SDS011;39952;40.122;18.294;2022-09-19T16:32:50;7.45;;;4.43;;
54033;SDS011;39952;40.122;18.294;2022-09-19T16:35:58;8.13;;;4.65;;
54033;SDS011;39952;40.122;18.294;2022-09-19T16:39:17;10.00;;;4.80;;
54033;SDS011;39952;40.122;18.294;2022-09-19T16:42:32;8.95;;;5.05;;
54033;SDS011;39952;40.122;18.294;2022-09-19T16:45:40;10.15;;;5.03;;
54033;SDS011;39952;40.122;18.294;2022-09-19T16:48:46;7.65;;;4.72;;
54033;SDS011;39952;40.122;18.294;2022-09-19T16:51:53;8.70;;;4.95;;
54033;SDS011;39952;40.122;18.294;2022-09-19T16:55:02;7.60;;;4.90;;
54033;SDS011;39952;40.122;18.294;2022-09-19T16:58:13;7.63;;;4.50;;
54033;SDS011;39952;40.122;18.294;2022-09-19T17:01:21;8.98;;;4.95;;
54033;SDS011;39952;40.122;18.294;2022-09-19T17:04:28;11.38;;;4.95;;
54033;SDS011;39952;40.122;18.294;2022-09-19T17:07:35;12.82;;;5.00;;
54033;SDS011;39952;40.122;18.294;2022-09-19T17:10:42;12.68;;;5.07;;
54033;SDS011;39952;40.122;18.294;2022-09-19T17:13:51;7.35;;;5.38;;
54033;SDS011;39952;40.122;18.294;2022-09-19T17:16:57;8.18;;;4.93;;
54033;SDS011;39952;40.122;18.294;2022-09-19T17:20:04;6.85;;;4.15;;
54033;SDS011;39952;40.122;18.294;2022-09-19T17:23:12;7.57;;;4.82;;
54033;SDS011;39952;40.122;18.294;2022-09-19T17:26:21;8.95;;;5.05;;
54033;SDS011;39952;40.122;18.294;2022-09-19T17:29:29;7.75;;;5.57;;
54033;SDS011;39952;40.122;18.294;2022-09-19T17:32:36;12.43;;;6.03;;
54033;SDS011;39952;40.122;18.294;2022-09-19T17:35:51;11.82;;;6.10;;
54033;SDS011;39952;40.122;18.294;2022-09-19T17:39:02;9.82;;;6.00;;
54033;SDS011;39952;40.122;18.294;2022-09-19T17:42:11;15.23;;;5.35;;
54033;SDS011;39952;40.122;18.294;2022-09-19T17:45:20;8.98;;;5.03;;
54033;SDS011;39952;40.122;18.294;2022-09-19T17:48:28;7.88;;;4.63;;
54033;SDS011;39952;40.122;18.294;2022-09-19T17:51:35;9.35;;;4.80;;
54033;SDS011;39952;40.122;18.294;2022-09-19T17:54:43;9.95;;;5.10;;
54033;SDS011;39952;40.122;18.294;2022-09-19T17:57:50;10.45;;;5.05;;
54033;SDS011;39952;40.122;18.294;2022-09-19T18:00:58;10.30;;;5.50;;
54033;SDS011;39952;40.122;18.294;2022-09-19T18:04:26;14.30;;;5.88;;
54033;SDS011;39952;40.122;18.294;2022-09-19T18:07:32;8.80;;;4.88;;
54033;SDS011;39952;40.122;18.294;2022-09-19T18:10:38;9.05;;;5.35;;
54033;SDS011;39952;40.122;18.294;2022-09-19T18:13:45;10.13;;;7.05;;
54033;SDS011;39952;40.122;18.294;2022-09-19T18:16:53;10.60;;;5.30;;
54033;SDS011;39952;40.122;18.294;2022-09-19T18:20:00;11.23;;;6.20;;
54033;SDS011;39952;40.122;18.294;2022-09-19T18:23:08;11.15;;;5.25;;
54033;SDS011;39952;40.122;18.294;2022-09-19T18:26:15;8.30;;;4.97;;
54033;SDS011;39952;40.122;18.294;2022-09-19T18:29:24;10.02;;;5.05;;
54033;SDS011;39952;40.122;18.294;2022-09-19T18:32:33;11.57;;;4.67;;
54033;SDS011;39952;40.122;18.294;2022-09-19T18:35:40;9.43;;;4.40;;
54033;SDS011;39952;40.122;18.294;2022-09-19T18:38:47;9.93;;;5.18;;
54033;SDS011;39952;40.122;18.294;2022-09-19T18:41:55;11.90;;;4.90;;
54033;SDS011;39952;40.122;18.294;2022-09-19T18:45:02;14.00;;;4.53;;
54033;SDS011;39952;40.122;18.294;2022-09-19T18:48:10;8.65;;;4.55;;
54033;SDS011;39952;40.122;18.294;2022-09-19T18:51:18;7.50;;;4.40;;
54033;SDS011;39952;40.122;18.294;2022-09-19T18:54:26;7.80;;;4.18;;
54033;SDS011;39952;40.122;18.294;2022-09-19T18:57:34;8.68;;;4.32;;
54033;SDS011;39952;40.122;18.294;2022-09-19T19:00:40;6.57;;;4.07;;
54033;SDS011;39952;40.122;18.294;2022-09-19T19:03:52;8.43;;;4.55;;
54033;SDS011;39952;40.122;18.294;2022-09-19T19:07:00;7.90;;;4.03;;
54033;SDS011;39952;40.122;18.294;2022-09-19T19:10:07;6.72;;;4.13;;
54033;SDS011;39952;40.122;18.294;2022-09-19T19:13:15;8.50;;;4.53;;
54033;SDS011;39952;40.122;18.294;2022-09-19T19:16:22;11.10;;;4.88;;
54033;SDS011;39952;40.122;18.294;2022-09-19T19:19:32;10.15;;;5.28;;
54033;SDS011;39952;40.122;18.294;2022-09-19T19:22:39;12.13;;;6.75;;
54033;SDS011;39952;40.122;18.294;2022-09-19T19:25:48;10.50;;;4.88;;
54033;SDS011;39952;40.122;18.294;2022-09-19T19:28:56;8.35;;;4.10;;
54033;SDS011;39952;40.122;18.294;2022-09-19T19:32:03;6.80;;;4.10;;
54033;SDS011;39952;40.122;18.294;2022-09-19T19:35:11;6.03;;;3.63;;
54033;SDS011;39952;40.122;18.294;2022-09-19T19:38:20;7.35;;;4.10;;
54033;SDS011;39952;40.122;18.294;2022-09-19T19:41:27;7.78;;;3.67;;